sensor_id;sensor_type;location;lat;lon;timestamp;P1;durP1;ratioP1;P2;durP2;ratioP2
23078;SDS011;11707;50.830;4.364;2022-07-04T00:00:01;8.57;;;1.63;;
23078;SDS011;11707;50.830;4.364;2022-07-04T00:02:28;11.38;;;2.10;;
23078;SDS011;11707;50.830;4.364;2022-07-04T00:04:54;6.82;;;1.88;;
23078;SDS011;11707;50.830;4.364;2022-07-04T00:07:20;4.85;;;1.92;;
23078;SDS011;11707;50.830;4.364;2022-07-04T00:09:46;6.95;;;2.70;;
23078;SDS011;11707;50.830;4.364;2022-07-04T00:12:11;6.05;;;2.25;;
23078;SDS011;11707;50.830;4.364;2022-07-04T00:14:37;7.97;;;2.25;;
23078;SDS011;11707;50.830;4.364;2022-07-04T00:17:03;8.73;;;1.77;;
23078;SDS011;11707;50.830;4.364;2022-07-04T00:19:29;8.38;;;2.33;;
23078;SDS011;11707;50.830;4.364;2022-07-04T00:21:55;6.75;;;2.55;;
23078;SDS011;11707;50.830;4.364;2022-07-04T00:24:21;6.22;;;1.92;;
23078;SDS011;11707;50.830;4.364;2022-07-04T00:26:46;5.65;;;2.15;;
23078;SDS011;11707;50.830;4.364;2022-07-04T00:29:12;4.47;;;1.85;;
23078;SDS011;11707;50.830;4.364;2022-07-04T00:31:39;7.72;;;2.42;;
23078;SDS011;11707;50.830;4.364;2022-07-04T00:34:05;6.00;;;2.08;;
23078;SDS011;11707;50.830;4.364;2022-07-04T00:36:31;6.63;;;1.83;;
23078;SDS011;11707;50.830;4.364;2022-07-04T00:38:56;5.18;;;1.98;;
23078;SDS011;11707;50.830;4.364;2022-07-04T00:41:22;6.03;;;1.58;;
23078;SDS011;11707;50.830;4.364;2022-07-04T00:44:01;6.22;;;1.50;;
23078;SDS011;11707;50.830;4.364;2022-07-04T00:46:28;4.25;;;1.33;;
23078;SDS011;11707;50.830;4.364;2022-07-04T00:48:54;6.00;;;1.35;;
23078;SDS011;11707;50.830;4.364;2022-07-04T00:51:20;6.63;;;2.10;;
23078;SDS011;11707;50.830;4.364;2022-07-04T00:53:46;8.43;;;2.78;;
23078;SDS011;11707;50.830;4.364;2022-07-04T00:56:12;6.00;;;2.05;;
23078;SDS011;11707;50.830;4.364;2022-07-04T00:58:38;5.03;;;2.05;;
23078;SDS011;11707;50.830;4.364;2022-07-04T01:01:04;8.05;;;2.05;;
23078;SDS011;11707;50.830;4.364;2022-07-04T01:03:29;6.65;;;1.80;;
23078;SDS011;11707;50.830;4.364;2022-07-04T01:05:55;5.15;;;2.50;;
23078;SDS011;11707;50.830;4.364;2022-07-04T01:08:23;7.25;;;2.38;;
23078;SDS011;11707;50.830;4.364;2022-07-04T01:10:49;7.82;;;2.25;;
23078;SDS011;11707;50.830;4.364;2022-07-04T01:13:19;10.25;;;1.75;;
23078;SDS011;11707;50.830;4.364;2022-07-04T01:15:48;6.00;;;2.42;;
23078;SDS011;11707;50.830;4.364;2022-07-04T01:18:15;11.10;;;2.15;;
23078;SDS011;11707;50.830;4.364;2022-07-04T01:20:42;8.00;;;2.05;;
23078;SDS011;11707;50.830;4.364;2022-07-04T01:23:08;8.48;;;1.88;;
23078;SDS011;11707;50.830;4.364;2022-07-04T01:25:34;7.32;;;2.70;;
23078;SDS011;11707;50.830;4.364;2022-07-04T01:28:00;4.57;;;1.70;;
23078;SDS011;11707;50.830;4.364;2022-07-04T01:30:26;7.95;;;1.95;;
23078;SDS011;11707;50.830;4.364;2022-07-04T01:32:52;9.38;;;1.90;;
23078;SDS011;11707;50.830;4.364;2022-07-04T01:35:19;3.72;;;1.50;;
23078;SDS011;11707;50.830;4.364;2022-07-04T01:37:45;7.15;;;1.40;;
23078;SDS011;11707;50.830;4.364;2022-07-04T01:40:11;4.38;;;1.58;;
23078;SDS011;11707;50.830;4.364;2022-07-04T01:42:38;6.93;;;1.30;;
23078;SDS011;11707;50.830;4.364;2022-07-04T01:45:04;4.55;;;1.40;;
23078;SDS011;11707;50.830;4.364;2022-07-04T01:47:30;4.28;;;1.67;;
23078;SDS011;11707;50.830;4.364;2022-07-04T01:49:56;6.70;;;1.73;;
23078;SDS011;11707;50.830;4.364;2022-07-04T01:52:22;4.72;;;1.50;;
23078;SDS011;11707;50.830;4.364;2022-07-04T01:54:48;3.65;;;1.40;;
23078;SDS011;11707;50.830;4.364;2022-07-04T01:57:14;5.28;;;1.50;;
23078;SDS011;11707;50.830;4.364;2022-07-04T01:59:39;4.82;;;1.50;;
23078;SDS011;11707;50.830;4.364;2022-07-04T02:02:24;5.20;;;1.25;;
23078;SDS011;11707;50.830;4.364;2022-07-04T02:04:50;3.60;;;1.27;;
23078;SDS011;11707;50.830;4.364;2022-07-04T02:07:16;4.30;;;1.52;;
23078;SDS011;11707;50.830;4.364;2022-07-04T02:09:42;4.72;;;1.25;;
23078;SDS011;11707;50.830;4.364;2022-07-04T02:12:07;3.85;;;1.40;;
23078;SDS011;11707;50.830;4.364;2022-07-04T02:14:51;6.43;;;1.90;;
23078;SDS011;11707;50.830;4.364;2022-07-04T02:17:17;7.03;;;1.75;;
23078;SDS011;11707;50.830;4.364;2022-07-04T02:19:43;4.50;;;1.30;;
23078;SDS011;11707;50.830;4.364;2022-07-04T02:22:09;5.53;;;1.60;;
23078;SDS011;11707;50.830;4.364;2022-07-04T02:24:35;8.50;;;1.60;;
23078;SDS011;11707;50.830;4.364;2022-07-04T02:27:01;9.32;;;1.90;;
23078;SDS011;11707;50.830;4.364;2022-07-04T02:29:27;3.97;;;1.73;;
23078;SDS011;11707;50.830;4.364;2022-07-04T02:31:52;6.55;;;1.90;;
23078;SDS011;11707;50.830;4.364;2022-07-04T02:34:18;3.80;;;1.30;;
23078;SDS011;11707;50.830;4.364;2022-07-04T02:36:44;6.95;;;1.60;;
23078;SDS011;11707;50.830;4.364;2022-07-04T02:39:10;5.65;;;1.85;;
23078;SDS011;11707;50.830;4.364;2022-07-04T02:41:35;10.20;;;2.00;;
23078;SDS011;11707;50.830;4.364;2022-07-04T02:44:01;5.03;;;1.60;;
23078;SDS011;11707;50.830;4.364;2022-07-04T02:46:27;4.55;;;1.90;;
23078;SDS011;11707;50.830;4.364;2022-07-04T02:48:53;4.20;;;1.85;;
23078;SDS011;11707;50.830;4.364;2022-07-04T02:51:19;4.70;;;2.00;;
23078;SDS011;11707;50.830;4.364;2022-07-04T02:53:45;6.97;;;1.67;;
23078;SDS011;11707;50.830;4.364;2022-07-04T02:56:10;6.43;;;1.58;;
23078;SDS011;11707;50.830;4.364;2022-07-04T02:58:36;4.65;;;1.60;;
23078;SDS011;11707;50.830;4.364;2022-07-04T03:01:02;12.95;;;1.42;;
23078;SDS011;11707;50.830;4.364;2022-07-04T03:03:27;5.22;;;1.50;;
23078;SDS011;11707;50.830;4.364;2022-07-04T03:05:53;4.97;;;1.88;;
23078;SDS011;11707;50.830;4.364;2022-07-04T03:08:19;11.60;;;2.45;;
23078;SDS011;11707;50.830;4.364;2022-07-04T03:10:45;3.58;;;1.42;;
23078;SDS011;11707;50.830;4.364;2022-07-04T03:13:10;6.75;;;2.40;;
23078;SDS011;11707;50.830;4.364;2022-07-04T03:15:36;4.93;;;1.90;;
23078;SDS011;11707;50.830;4.364;2022-07-04T03:18:02;8.13;;;1.65;;
23078;SDS011;11707;50.830;4.364;2022-07-04T03:20:29;7.43;;;1.40;;
23078;SDS011;11707;50.830;4.364;2022-07-04T03:22:55;5.38;;;1.65;;
23078;SDS011;11707;50.830;4.364;2022-07-04T03:25:20;4.10;;;1.30;;
23078;SDS011;11707;50.830;4.364;2022-07-04T03:27:46;4.97;;;1.67;;
23078;SDS011;11707;50.830;4.364;2022-07-04T03:30:12;4.40;;;1.48;;
23078;SDS011;11707;50.830;4.364;2022-07-04T03:32:38;5.05;;;1.33;;
23078;SDS011;11707;50.830;4.364;2022-07-04T03:35:04;5.43;;;2.33;;
23078;SDS011;11707;50.830;4.364;2022-07-04T03:37:30;4.68;;;1.40;;
23078;SDS011;11707;50.830;4.364;2022-07-04T03:39:56;5.22;;;1.83;;
23078;SDS011;11707;50.830;4.364;2022-07-04T03:42:21;4.25;;;1.42;;
23078;SDS011;11707;50.830;4.364;2022-07-04T03:44:47;6.30;;;1.48;;
23078;SDS011;11707;50.830;4.364;2022-07-04T03:47:13;4.53;;;1.67;;
23078;SDS011;11707;50.830;4.364;2022-07-04T03:49:39;6.38;;;2.25;;
23078;SDS011;11707;50.830;4.364;2022-07-04T03:52:05;6.32;;;1.38;;
23078;SDS011;11707;50.830;4.364;2022-07-04T03:54:31;6.55;;;1.60;;
23078;SDS011;11707;50.830;4.364;2022-07-04T03:56:57;4.70;;;1.35;;
23078;SDS011;11707;50.830;4.364;2022-07-04T03:59:23;7.60;;;1.65;;
23078;SDS011;11707;50.830;4.364;2022-07-04T04:01:48;4.53;;;1.40;;
23078;SDS011;11707;50.830;4.364;2022-07-04T04:04:14;5.70;;;1.65;;
23078;SDS011;11707;50.830;4.364;2022-07-04T04:06:58;4.53;;;1.75;;
23078;SDS011;11707;50.830;4.364;2022-07-04T04:09:24;3.53;;;1.15;;
23078;SDS011;11707;50.830;4.364;2022-07-04T04:11:50;6.68;;;1.75;;
23078;SDS011;11707;50.830;4.364;2022-07-04T04:14:17;5.25;;;1.40;;
23078;SDS011;11707;50.830;4.364;2022-07-04T04:16:42;4.72;;;1.17;;
23078;SDS011;11707;50.830;4.364;2022-07-04T04:19:11;6.78;;;1.80;;
23078;SDS011;11707;50.830;4.364;2022-07-04T04:21:37;5.32;;;1.67;;
23078;SDS011;11707;50.830;4.364;2022-07-04T04:24:03;6.95;;;1.58;;
23078;SDS011;11707;50.830;4.364;2022-07-04T04:26:29;5.47;;;1.48;;
23078;SDS011;11707;50.830;4.364;2022-07-04T04:28:55;5.15;;;1.20;;
23078;SDS011;11707;50.830;4.364;2022-07-04T04:31:21;10.48;;;2.25;;
23078;SDS011;11707;50.830;4.364;2022-07-04T04:33:47;6.65;;;2.03;;
23078;SDS011;11707;50.830;4.364;2022-07-04T04:36:13;9.02;;;1.77;;
23078;SDS011;11707;50.830;4.364;2022-07-04T04:38:38;7.10;;;1.85;;
23078;SDS011;11707;50.830;4.364;2022-07-04T04:41:04;9.85;;;1.70;;
23078;SDS011;11707;50.830;4.364;2022-07-04T04:43:30;5.28;;;1.80;;
23078;SDS011;11707;50.830;4.364;2022-07-04T04:45:55;8.60;;;2.47;;
23078;SDS011;11707;50.830;4.364;2022-07-04T04:48:21;5.50;;;1.92;;
23078;SDS011;11707;50.830;4.364;2022-07-04T04:50:47;3.72;;;1.35;;
23078;SDS011;11707;50.830;4.364;2022-07-04T04:53:12;9.68;;;1.80;;
23078;SDS011;11707;50.830;4.364;2022-07-04T04:55:39;3.22;;;1.40;;
23078;SDS011;11707;50.830;4.364;2022-07-04T04:58:05;6.45;;;1.50;;
23078;SDS011;11707;50.830;4.364;2022-07-04T05:00:31;7.20;;;2.20;;
23078;SDS011;11707;50.830;4.364;2022-07-04T05:02:57;4.82;;;1.38;;
23078;SDS011;11707;50.830;4.364;2022-07-04T05:05:23;5.88;;;1.45;;
23078;SDS011;11707;50.830;4.364;2022-07-04T05:07:49;4.90;;;1.10;;
23078;SDS011;11707;50.830;4.364;2022-07-04T05:10:14;8.15;;;1.70;;
23078;SDS011;11707;50.830;4.364;2022-07-04T05:12:41;5.13;;;1.33;;
23078;SDS011;11707;50.830;4.364;2022-07-04T05:15:07;9.02;;;2.33;;
23078;SDS011;11707;50.830;4.364;2022-07-04T05:17:33;5.43;;;1.38;;
23078;SDS011;11707;50.830;4.364;2022-07-04T05:19:59;5.97;;;1.70;;
23078;SDS011;11707;50.830;4.364;2022-07-04T05:22:25;6.68;;;1.15;;
23078;SDS011;11707;50.830;4.364;2022-07-04T05:24:51;10.65;;;1.48;;
23078;SDS011;11707;50.830;4.364;2022-07-04T05:27:17;7.70;;;1.75;;
23078;SDS011;11707;50.830;4.364;2022-07-04T05:29:42;6.15;;;1.23;;
23078;SDS011;11707;50.830;4.364;2022-07-04T05:32:08;7.03;;;1.45;;
23078;SDS011;11707;50.830;4.364;2022-07-04T05:34:34;8.68;;;2.10;;
23078;SDS011;11707;50.830;4.364;2022-07-04T05:37:00;9.30;;;1.65;;
23078;SDS011;11707;50.830;4.364;2022-07-04T05:39:27;5.72;;;1.40;;
23078;SDS011;11707;50.830;4.364;2022-07-04T05:41:53;4.68;;;1.88;;
23078;SDS011;11707;50.830;4.364;2022-07-04T05:44:19;9.38;;;2.20;;
23078;SDS011;11707;50.830;4.364;2022-07-04T05:46:45;7.63;;;1.90;;
23078;SDS011;11707;50.830;4.364;2022-07-04T05:49:11;9.13;;;2.13;;
23078;SDS011;11707;50.830;4.364;2022-07-04T05:51:37;6.93;;;2.20;;
23078;SDS011;11707;50.830;4.364;2022-07-04T05:54:02;4.65;;;1.67;;
23078;SDS011;11707;50.830;4.364;2022-07-04T05:56:28;4.97;;;1.52;;
23078;SDS011;11707;50.830;4.364;2022-07-04T05:58:55;6.55;;;1.55;;
23078;SDS011;11707;50.830;4.364;2022-07-04T06:01:21;9.48;;;2.13;;
23078;SDS011;11707;50.830;4.364;2022-07-04T06:03:46;5.13;;;2.05;;
23078;SDS011;11707;50.830;4.364;2022-07-04T06:06:12;10.15;;;2.25;;
23078;SDS011;11707;50.830;4.364;2022-07-04T06:08:38;8.55;;;2.33;;
23078;SDS011;11707;50.830;4.364;2022-07-04T06:11:04;8.95;;;2.17;;
23078;SDS011;11707;50.830;4.364;2022-07-04T06:13:30;6.03;;;1.88;;
23078;SDS011;11707;50.830;4.364;2022-07-04T06:15:55;5.18;;;1.58;;
23078;SDS011;11707;50.830;4.364;2022-07-04T06:18:21;7.40;;;2.05;;
23078;SDS011;11707;50.830;4.364;2022-07-04T06:20:47;8.05;;;1.70;;
23078;SDS011;11707;50.830;4.364;2022-07-04T06:23:13;10.18;;;1.67;;
23078;SDS011;11707;50.830;4.364;2022-07-04T06:25:39;15.30;;;2.05;;
23078;SDS011;11707;50.830;4.364;2022-07-04T06:28:04;8.20;;;2.10;;
23078;SDS011;11707;50.830;4.364;2022-07-04T06:30:30;14.30;;;2.78;;
23078;SDS011;11707;50.830;4.364;2022-07-04T06:32:56;18.13;;;1.98;;
23078;SDS011;11707;50.830;4.364;2022-07-04T06:35:28;14.13;;;1.67;;
23078;SDS011;11707;50.830;4.364;2022-07-04T06:38:11;5.10;;;1.33;;
23078;SDS011;11707;50.830;4.364;2022-07-04T06:40:38;17.55;;;2.53;;
23078;SDS011;11707;50.830;4.364;2022-07-04T06:43:04;11.55;;;2.10;;
23078;SDS011;11707;50.830;4.364;2022-07-04T06:45:31;7.95;;;2.03;;
23078;SDS011;11707;50.830;4.364;2022-07-04T06:47:59;5.60;;;2.22;;
23078;SDS011;11707;50.830;4.364;2022-07-04T06:50:25;15.10;;;2.13;;
23078;SDS011;11707;50.830;4.364;2022-07-04T06:52:51;13.70;;;2.40;;
23078;SDS011;11707;50.830;4.364;2022-07-04T06:55:17;9.88;;;2.30;;
23078;SDS011;11707;50.830;4.364;2022-07-04T06:57:43;10.60;;;1.90;;
23078;SDS011;11707;50.830;4.364;2022-07-04T07:00:09;8.27;;;1.65;;
23078;SDS011;11707;50.830;4.364;2022-07-04T07:02:36;8.65;;;1.90;;
23078;SDS011;11707;50.830;4.364;2022-07-04T07:05:02;8.45;;;1.75;;
23078;SDS011;11707;50.830;4.364;2022-07-04T07:07:29;6.68;;;1.00;;
23078;SDS011;11707;50.830;4.364;2022-07-04T07:09:55;5.30;;;1.25;;
23078;SDS011;11707;50.830;4.364;2022-07-04T07:12:21;8.25;;;1.50;;
23078;SDS011;11707;50.830;4.364;2022-07-04T07:14:48;10.98;;;2.30;;
23078;SDS011;11707;50.830;4.364;2022-07-04T07:17:14;5.90;;;1.70;;
23078;SDS011;11707;50.830;4.364;2022-07-04T07:19:41;6.63;;;1.75;;
23078;SDS011;11707;50.830;4.364;2022-07-04T07:22:16;8.98;;;1.50;;
23078;SDS011;11707;50.830;4.364;2022-07-04T07:24:42;5.30;;;1.23;;
23078;SDS011;11707;50.830;4.364;2022-07-04T07:27:08;4.32;;;1.02;;
23078;SDS011;11707;50.830;4.364;2022-07-04T07:29:35;6.22;;;1.38;;
23078;SDS011;11707;50.830;4.364;2022-07-04T07:32:01;4.53;;;1.65;;
23078;SDS011;11707;50.830;4.364;2022-07-04T07:34:27;3.92;;;1.10;;
23078;SDS011;11707;50.830;4.364;2022-07-04T07:36:53;4.35;;;1.40;;
23078;SDS011;11707;50.830;4.364;2022-07-04T07:39:19;4.28;;;0.88;;
23078;SDS011;11707;50.830;4.364;2022-07-04T07:41:45;8.95;;;1.20;;
23078;SDS011;11707;50.830;4.364;2022-07-04T07:44:11;7.35;;;0.98;;
23078;SDS011;11707;50.830;4.364;2022-07-04T07:46:37;8.02;;;1.25;;
23078;SDS011;11707;50.830;4.364;2022-07-04T07:49:03;7.10;;;1.13;;
23078;SDS011;11707;50.830;4.364;2022-07-04T07:51:29;6.22;;;0.90;;
23078;SDS011;11707;50.830;4.364;2022-07-04T07:53:55;6.97;;;1.10;;
23078;SDS011;11707;50.830;4.364;2022-07-04T07:56:21;10.35;;;1.00;;
23078;SDS011;11707;50.830;4.364;2022-07-04T07:58:47;4.38;;;0.77;;
23078;SDS011;11707;50.830;4.364;2022-07-04T08:01:14;5.38;;;1.38;;
23078;SDS011;11707;50.830;4.364;2022-07-04T08:03:41;6.45;;;1.02;;
23078;SDS011;11707;50.830;4.364;2022-07-04T08:06:25;11.45;;;1.52;;
23078;SDS011;11707;50.830;4.364;2022-07-04T08:08:51;5.50;;;1.30;;
23078;SDS011;11707;50.830;4.364;2022-07-04T08:11:16;3.05;;;1.00;;
23078;SDS011;11707;50.830;4.364;2022-07-04T08:13:42;7.38;;;1.33;;
23078;SDS011;11707;50.830;4.364;2022-07-04T08:16:08;4.82;;;0.90;;
23078;SDS011;11707;50.830;4.364;2022-07-04T08:18:35;6.97;;;0.98;;
23078;SDS011;11707;50.830;4.364;2022-07-04T08:21:01;9.40;;;1.02;;
23078;SDS011;11707;50.830;4.364;2022-07-04T08:23:28;5.57;;;0.88;;
23078;SDS011;11707;50.830;4.364;2022-07-04T08:25:54;4.40;;;1.30;;
23078;SDS011;11707;50.830;4.364;2022-07-04T08:28:20;11.43;;;1.33;;
23078;SDS011;11707;50.830;4.364;2022-07-04T08:30:46;9.25;;;1.85;;
23078;SDS011;11707;50.830;4.364;2022-07-04T08:33:11;15.63;;;1.40;;
23078;SDS011;11707;50.830;4.364;2022-07-04T08:35:37;12.23;;;1.80;;
23078;SDS011;11707;50.830;4.364;2022-07-04T08:38:03;17.58;;;2.10;;
23078;SDS011;11707;50.830;4.364;2022-07-04T08:40:29;5.57;;;1.17;;
23078;SDS011;11707;50.830;4.364;2022-07-04T08:42:55;8.02;;;0.98;;
23078;SDS011;11707;50.830;4.364;2022-07-04T08:45:31;5.40;;;1.70;;
23078;SDS011;11707;50.830;4.364;2022-07-04T08:48:05;5.47;;;1.10;;
23078;SDS011;11707;50.830;4.364;2022-07-04T08:50:39;10.50;;;1.48;;
23078;SDS011;11707;50.830;4.364;2022-07-04T08:53:18;3.20;;;0.75;;
23078;SDS011;11707;50.830;4.364;2022-07-04T08:55:45;8.73;;;1.10;;
23078;SDS011;11707;50.830;4.364;2022-07-04T08:58:38;8.70;;;1.53;;
23078;SDS011;11707;50.830;4.364;2022-07-04T09:01:08;14.52;;;2.13;;
23078;SDS011;11707;50.830;4.364;2022-07-04T09:03:42;12.35;;;1.65;;
23078;SDS011;11707;50.830;4.364;2022-07-04T09:06:09;5.55;;;1.00;;
23078;SDS011;11707;50.830;4.364;2022-07-04T09:08:37;4.90;;;0.60;;
23078;SDS011;11707;50.830;4.364;2022-07-04T09:11:03;7.70;;;1.20;;
23078;SDS011;11707;50.830;4.364;2022-07-04T09:13:30;10.90;;;1.70;;
23078;SDS011;11707;50.830;4.364;2022-07-04T09:15:56;5.30;;;1.20;;
23078;SDS011;11707;50.830;4.364;2022-07-04T09:18:26;10.43;;;2.55;;
23078;SDS011;11707;50.830;4.364;2022-07-04T09:20:58;9.13;;;2.75;;
23078;SDS011;11707;50.830;4.364;2022-07-04T09:23:35;4.25;;;1.60;;
23078;SDS011;11707;50.830;4.364;2022-07-04T09:26:10;9.45;;;3.53;;
23078;SDS011;11707;50.830;4.364;2022-07-04T09:28:43;14.48;;;3.47;;
23078;SDS011;11707;50.830;4.364;2022-07-04T09:33:54;12.57;;;5.75;;
23078;SDS011;11707;50.830;4.364;2022-07-04T09:36:26;16.58;;;6.70;;
23078;SDS011;11707;50.830;4.364;2022-07-04T09:41:58;14.05;;;4.90;;
23078;SDS011;11707;50.830;4.364;2022-07-04T09:44:26;9.60;;;4.70;;
23078;SDS011;11707;50.830;4.364;2022-07-04T09:47:24;12.90;;;4.65;;
23078;SDS011;11707;50.830;4.364;2022-07-04T09:50:00;13.20;;;4.82;;
23078;SDS011;11707;50.830;4.364;2022-07-04T09:52:44;13.98;;;4.90;;
23078;SDS011;11707;50.830;4.364;2022-07-04T09:55:26;14.88;;;5.63;;
23078;SDS011;11707;50.830;4.364;2022-07-04T09:57:53;9.82;;;5.05;;
23078;SDS011;11707;50.830;4.364;2022-07-04T10:02:46;13.02;;;3.33;;
23078;SDS011;11707;50.830;4.364;2022-07-04T10:05:14;5.80;;;2.05;;
23078;SDS011;11707;50.830;4.364;2022-07-04T10:07:47;5.88;;;2.20;;
23078;SDS011;11707;50.830;4.364;2022-07-04T10:10:32;5.38;;;2.10;;
23078;SDS011;11707;50.830;4.364;2022-07-04T10:13:01;7.82;;;2.10;;
23078;SDS011;11707;50.830;4.364;2022-07-04T10:15:29;6.10;;;1.45;;
23078;SDS011;11707;50.830;4.364;2022-07-04T10:17:56;5.13;;;1.75;;
23078;SDS011;11707;50.830;4.364;2022-07-04T10:20:22;5.28;;;1.83;;
23078;SDS011;11707;50.830;4.364;2022-07-04T10:22:48;3.70;;;1.13;;
23078;SDS011;11707;50.830;4.364;2022-07-04T10:25:14;2.33;;;1.20;;
23078;SDS011;11707;50.830;4.364;2022-07-04T10:27:40;2.40;;;0.77;;
23078;SDS011;11707;50.830;4.364;2022-07-04T10:30:07;2.28;;;0.63;;
23078;SDS011;11707;50.830;4.364;2022-07-04T10:32:37;3.25;;;1.00;;
23078;SDS011;11707;50.830;4.364;2022-07-04T10:35:04;3.25;;;1.50;;
23078;SDS011;11707;50.830;4.364;2022-07-04T10:40:38;4.55;;;1.30;;
23078;SDS011;11707;50.830;4.364;2022-07-04T10:54:28;5.50;;;0.90;;
23078;SDS011;11707;50.830;4.364;2022-07-04T10:56:53;2.25;;;0.80;;
23078;SDS011;11707;50.830;4.364;2022-07-04T10:59:28;4.57;;;1.10;;
23078;SDS011;11707;50.830;4.364;2022-07-04T11:07:14;4.80;;;1.10;;
23078;SDS011;11707;50.830;4.364;2022-07-04T11:09:40;2.38;;;1.02;;
23078;SDS011;11707;50.830;4.364;2022-07-04T11:12:08;6.82;;;1.58;;
23078;SDS011;11707;50.830;4.364;2022-07-04T11:14:35;11.07;;;1.73;;
23078;SDS011;11707;50.830;4.364;2022-07-04T11:17:15;5.60;;;1.30;;
23078;SDS011;11707;50.830;4.364;2022-07-04T11:19:59;5.22;;;1.08;;
23078;SDS011;11707;50.830;4.364;2022-07-04T11:22:28;6.45;;;1.38;;
23078;SDS011;11707;50.830;4.364;2022-07-04T11:24:55;6.28;;;1.00;;
23078;SDS011;11707;50.830;4.364;2022-07-04T11:27:22;5.13;;;1.42;;
23078;SDS011;11707;50.830;4.364;2022-07-04T11:29:51;4.38;;;1.65;;
23078;SDS011;11707;50.830;4.364;2022-07-04T11:32:18;4.90;;;1.30;;
23078;SDS011;11707;50.830;4.364;2022-07-04T11:34:45;4.38;;;1.10;;
23078;SDS011;11707;50.830;4.364;2022-07-04T11:37:11;3.42;;;0.95;;
23078;SDS011;11707;50.830;4.364;2022-07-04T11:39:37;5.53;;;1.38;;
23078;SDS011;11707;50.830;4.364;2022-07-04T11:42:03;6.18;;;1.30;;
23078;SDS011;11707;50.830;4.364;2022-07-04T11:44:48;4.20;;;1.27;;
23078;SDS011;11707;50.830;4.364;2022-07-04T11:47:35;3.03;;;1.42;;
23078;SDS011;11707;50.830;4.364;2022-07-04T11:50:09;9.38;;;1.50;;
23078;SDS011;11707;50.830;4.364;2022-07-04T11:55:06;7.38;;;1.42;;
23078;SDS011;11707;50.830;4.364;2022-07-04T11:57:36;6.95;;;1.40;;
23078;SDS011;11707;50.830;4.364;2022-07-04T12:00:07;6.37;;;1.10;;
23078;SDS011;11707;50.830;4.364;2022-07-04T12:02:35;7.20;;;1.58;;
23078;SDS011;11707;50.830;4.364;2022-07-04T12:05:02;2.80;;;1.05;;
23078;SDS011;11707;50.830;4.364;2022-07-04T12:07:34;4.75;;;1.60;;
23078;SDS011;11707;50.830;4.364;2022-07-04T12:10:14;3.05;;;1.15;;
23078;SDS011;11707;50.830;4.364;2022-07-04T12:12:58;5.25;;;1.20;;
23078;SDS011;11707;50.830;4.364;2022-07-04T12:18:04;4.50;;;1.30;;
23078;SDS011;11707;50.830;4.364;2022-07-04T12:20:31;3.53;;;1.08;;
23078;SDS011;11707;50.830;4.364;2022-07-04T12:22:58;5.78;;;1.15;;
23078;SDS011;11707;50.830;4.364;2022-07-04T12:25:27;3.50;;;1.83;;
23078;SDS011;11707;50.830;4.364;2022-07-04T12:28:08;7.28;;;1.13;;
23078;SDS011;11707;50.830;4.364;2022-07-04T12:30:35;4.20;;;1.30;;
23078;SDS011;11707;50.830;4.364;2022-07-04T12:33:03;14.18;;;1.50;;
23078;SDS011;11707;50.830;4.364;2022-07-04T12:35:35;3.65;;;1.15;;
23078;SDS011;11707;50.830;4.364;2022-07-04T12:38:20;3.67;;;1.00;;
23078;SDS011;11707;50.830;4.364;2022-07-04T12:41:08;6.47;;;1.63;;
23078;SDS011;11707;50.830;4.364;2022-07-04T12:46:07;3.28;;;1.00;;
23078;SDS011;11707;50.830;4.364;2022-07-04T12:48:35;2.40;;;0.90;;
23078;SDS011;11707;50.830;4.364;2022-07-04T12:51:12;3.33;;;1.20;;
23078;SDS011;11707;50.830;4.364;2022-07-04T12:53:40;6.70;;;1.35;;
23078;SDS011;11707;50.830;4.364;2022-07-04T12:56:08;3.40;;;0.65;;
23078;SDS011;11707;50.830;4.364;2022-07-04T12:58:35;3.25;;;0.93;;
23078;SDS011;11707;50.830;4.364;2022-07-04T13:01:02;4.88;;;1.10;;
23078;SDS011;11707;50.830;4.364;2022-07-04T13:03:28;2.97;;;0.70;;
23078;SDS011;11707;50.830;4.364;2022-07-04T13:05:54;6.10;;;1.95;;
23078;SDS011;11707;50.830;4.364;2022-07-04T13:08:22;2.67;;;0.70;;
23078;SDS011;11707;50.830;4.364;2022-07-04T13:10:48;2.40;;;0.63;;
23078;SDS011;11707;50.830;4.364;2022-07-04T13:13:34;2.17;;;0.80;;
23078;SDS011;11707;50.830;4.364;2022-07-04T13:15:59;4.10;;;1.08;;
23078;SDS011;11707;50.830;4.364;2022-07-04T13:18:25;2.53;;;0.60;;
23078;SDS011;11707;50.830;4.364;2022-07-04T13:20:51;2.42;;;0.60;;
23078;SDS011;11707;50.830;4.364;2022-07-04T13:23:17;3.40;;;1.02;;
23078;SDS011;11707;50.830;4.364;2022-07-04T13:25:43;1.73;;;0.50;;
23078;SDS011;11707;50.830;4.364;2022-07-04T13:28:09;4.93;;;0.82;;
23078;SDS011;11707;50.830;4.364;2022-07-04T13:30:34;3.33;;;0.77;;
23078;SDS011;11707;50.830;4.364;2022-07-04T13:33:00;4.15;;;0.98;;
23078;SDS011;11707;50.830;4.364;2022-07-04T13:35:26;3.72;;;1.27;;
23078;SDS011;11707;50.830;4.364;2022-07-04T13:37:51;5.57;;;1.90;;
23078;SDS011;11707;50.830;4.364;2022-07-04T13:40:17;7.47;;;1.27;;
23078;SDS011;11707;50.830;4.364;2022-07-04T13:42:43;4.13;;;1.00;;
23078;SDS011;11707;50.830;4.364;2022-07-04T13:45:24;4.72;;;0.57;;
23078;SDS011;11707;50.830;4.364;2022-07-04T13:47:51;5.57;;;0.70;;
23078;SDS011;11707;50.830;4.364;2022-07-04T13:50:17;3.20;;;0.85;;
23078;SDS011;11707;50.830;4.364;2022-07-04T13:52:43;5.93;;;1.10;;
23078;SDS011;11707;50.830;4.364;2022-07-04T13:55:09;3.05;;;1.20;;
23078;SDS011;11707;50.830;4.364;2022-07-04T13:57:35;3.53;;;1.50;;
23078;SDS011;11707;50.830;4.364;2022-07-04T14:00:03;5.32;;;1.48;;
23078;SDS011;11707;50.830;4.364;2022-07-04T14:02:30;2.72;;;0.90;;
23078;SDS011;11707;50.830;4.364;2022-07-04T14:04:56;2.15;;;0.90;;
23078;SDS011;11707;50.830;4.364;2022-07-04T14:07:21;5.65;;;1.40;;
23078;SDS011;11707;50.830;4.364;2022-07-04T14:09:47;7.68;;;1.58;;
23078;SDS011;11707;50.830;4.364;2022-07-04T14:12:13;7.68;;;1.63;;
23078;SDS011;11707;50.830;4.364;2022-07-04T14:14:39;5.05;;;1.30;;
23078;SDS011;11707;50.830;4.364;2022-07-04T14:17:05;9.38;;;1.70;;
23078;SDS011;11707;50.830;4.364;2022-07-04T14:19:31;4.72;;;1.17;;
23078;SDS011;11707;50.830;4.364;2022-07-04T14:21:57;3.00;;;0.93;;
23078;SDS011;11707;50.830;4.364;2022-07-04T14:24:23;4.97;;;1.00;;
23078;SDS011;11707;50.830;4.364;2022-07-04T14:26:50;3.60;;;1.27;;
23078;SDS011;11707;50.830;4.364;2022-07-04T14:29:17;5.25;;;1.38;;
23078;SDS011;11707;50.830;4.364;2022-07-04T14:31:43;2.70;;;1.05;;
23078;SDS011;11707;50.830;4.364;2022-07-04T14:34:09;3.03;;;1.08;;
23078;SDS011;11707;50.830;4.364;2022-07-04T14:36:37;3.90;;;1.17;;
23078;SDS011;11707;50.830;4.364;2022-07-04T14:39:03;3.67;;;1.38;;
23078;SDS011;11707;50.830;4.364;2022-07-04T14:41:29;3.80;;;1.30;;
23078;SDS011;11707;50.830;4.364;2022-07-04T14:43:56;5.15;;;1.20;;
23078;SDS011;11707;50.830;4.364;2022-07-04T14:46:22;4.68;;;1.30;;
23078;SDS011;11707;50.830;4.364;2022-07-04T14:48:48;3.00;;;0.98;;
23078;SDS011;11707;50.830;4.364;2022-07-04T14:51:13;7.82;;;1.65;;
23078;SDS011;11707;50.830;4.364;2022-07-04T14:53:39;5.53;;;1.05;;
23078;SDS011;11707;50.830;4.364;2022-07-04T14:56:05;6.00;;;1.10;;
23078;SDS011;11707;50.830;4.364;2022-07-04T14:58:31;6.53;;;1.08;;
23078;SDS011;11707;50.830;4.364;2022-07-04T15:00:57;4.43;;;0.77;;
23078;SDS011;11707;50.830;4.364;2022-07-04T15:03:23;6.20;;;1.17;;
23078;SDS011;11707;50.830;4.364;2022-07-04T15:05:49;4.45;;;0.82;;
23078;SDS011;11707;50.830;4.364;2022-07-04T15:08:14;3.15;;;0.70;;
23078;SDS011;11707;50.830;4.364;2022-07-04T15:10:40;2.92;;;0.85;;
23078;SDS011;11707;50.830;4.364;2022-07-04T15:13:06;4.00;;;1.40;;
23078;SDS011;11707;50.830;4.364;2022-07-04T15:15:32;6.93;;;0.98;;
23078;SDS011;11707;50.830;4.364;2022-07-04T15:17:58;3.35;;;1.00;;
23078;SDS011;11707;50.830;4.364;2022-07-04T15:20:25;4.53;;;0.80;;
23078;SDS011;11707;50.830;4.364;2022-07-04T15:23:09;3.33;;;1.13;;